Back to Top

Language: 

My Weather Underground Personal Weather Station Historical Data with Graphs...

Delerius Weather Station Historical Data
Daily Summary for October 10, 2017 Units:  English    Metric   Both
« Previous Day
Next Day »
Daily Weekly Monthly Yearly Custom
  High: Low: Average:
Temperature: 62.8 °F 54.9 °F 58.3 °F
Dew Point: 55.5 °F 48.8 °F 52.8 °F
Humidity: 93 % 67 % 82 %
Wind Speed: 13.0 mph 2.0 mph 8.6 mph
Wind Gust: 26.0 mph - -
Wind:- - WSW
Pressure: 29.90 in 29.75 in -
Precipitation: 0.02 in    
Historical Graphs
 
 
Tabular Data for October 10, 2017
Time Temperature Dew Point Pressure Wind Wind Speed Wind Gust Humidity Rainfall Rate (Hourly) solar Conditions
00:00 54.9 °F 52.0 °F 29.90 in WSW 6.0 mph 11.0 mph 90 % 0.00 in 0 W/m2
00:05 55.0 °F 52.2 °F 29.90 in WSW 7.0 mph 11.0 mph 90 % 0.00 in 0 W/m2
00:10 55.2 °F 52.3 °F 29.90 in WSW 6.0 mph 10.0 mph 90 % 0.00 in 0 W/m2
00:16 55.2 °F 52.0 °F 29.89 in WSW 7.0 mph 12.0 mph 89 % 0.00 in 0 W/m2
00:21 55.4 °F 52.2 °F 29.89 in SW 7.0 mph 13.0 mph 89 % 0.00 in 0 W/m2
00:26 55.6 °F 52.4 °F 29.89 in SW 8.0 mph 13.0 mph 89 % 0.00 in 0 W/m2
00:31 55.6 °F 52.4 °F 29.89 in SW 7.0 mph 13.0 mph 89 % 0.00 in 0 W/m2
00:36 55.6 °F 52.4 °F 29.89 in SW 7.0 mph 11.0 mph 89 % 0.00 in 0 W/m2
00:41 55.6 °F 52.4 °F 29.88 in WSW 6.0 mph 11.0 mph 89 % 0.00 in 0 W/m2
00:46 55.6 °F 52.4 °F 29.88 in SW 6.0 mph 11.0 mph 89 % 0.00 in 0 W/m2
00:51 55.8 °F 52.6 °F 29.88 in SW 6.0 mph 11.0 mph 89 % 0.00 in 0 W/m2
00:56 55.8 °F 52.6 °F 29.88 in WSW 6.0 mph 10.0 mph 89 % 0.00 in 0 W/m2
01:01 55.8 °F 52.6 °F 29.87 in SW 5.0 mph 9.0 mph 89 % 0.00 in 0 W/m2
01:06 55.8 °F 52.6 °F 29.87 in SW 5.0 mph 8.0 mph 89 % 0.00 in 0 W/m2
01:11 55.8 °F 52.9 °F 29.88 in SW 5.0 mph 10.0 mph 90 % 0.00 in 0 W/m2
01:16 55.8 °F 52.9 °F 29.87 in SW 6.0 mph 12.0 mph 90 % 0.00 in 0 W/m2
01:21 55.8 °F 52.9 °F 29.87 in WSW 7.0 mph 13.0 mph 90 % 0.00 in 0 W/m2
01:26 55.9 °F 53.4 °F 29.87 in WSW 7.0 mph 13.0 mph 91 % 0.00 in 0 W/m2
01:31 55.9 °F 53.4 °F 29.87 in WSW 8.0 mph 15.0 mph 91 % 0.00 in 0 W/m2
01:36 55.9 °F 53.4 °F 29.87 in WSW 9.0 mph 15.0 mph 91 % 0.00 in 0 W/m2
01:46 56.1 °F 53.5 °F 29.86 in SW 8.0 mph 13.0 mph 91 % 0.00 in 0 W/m2
01:51 56.1 °F 53.5 °F 29.86 in SW 9.0 mph 13.0 mph 91 % 0.00 in 0 W/m2
01:56 56.1 °F 53.8 °F 29.86 in SW 8.0 mph 14.0 mph 92 % 0.00 in 0 W/m2
02:01 56.3 °F 54.0 °F 29.86 in SW 8.0 mph 14.0 mph 92 % 0.00 in 0 W/m2
02:06 56.3 °F 54.0 °F 29.86 in WSW 8.0 mph 14.0 mph 92 % 0.00 in 0 W/m2
02:11 56.7 °F 54.1 °F 29.86 in WSW 10.0 mph 19.0 mph 91 % 0.00 in 0 W/m2
02:16 57.0 °F 54.4 °F 29.86 in WSW 11.0 mph 19.0 mph 91 % 0.00 in 0 W/m2
02:21 57.6 °F 54.6 °F 29.86 in WSW 10.0 mph 19.0 mph 90 % 0.00 in 0 W/m2
02:26 57.7 °F 54.5 °F 29.86 in WSW 11.0 mph 18.0 mph 89 % 0.00 in 0 W/m2
02:31 57.7 °F 54.2 °F 29.86 in WSW 11.0 mph 18.0 mph 88 % 0.00 in 0 W/m2
02:32 57.9 °F 54.4 °F 29.86 in WSW 10.0 mph 18.0 mph 88 % 0.00 in 0 W/m2
02:38 57.9 °F 54.4 °F 29.86 in WSW 11.0 mph 21.0 mph 88 % 0.00 in 0 W/m2
02:43 58.1 °F 54.2 °F 29.86 in WSW 12.0 mph 22.0 mph 87 % 0.00 in 0 W/m2
02:48 58.3 °F 54.4 °F 29.85 in WSW 11.0 mph 22.0 mph 87 % 0.00 in 0 W/m2
02:53 58.3 °F 54.4 °F 29.85 in WSW 10.0 mph 19.0 mph 87 % 0.00 in 0 W/m2
02:58 58.3 °F 54.4 °F 29.85 in WSW 11.0 mph 20.0 mph 87 % 0.00 in 0 W/m2
03:03 58.3 °F 54.4 °F 29.85 in WSW 11.0 mph 20.0 mph 87 % 0.00 in 0 W/m2
03:08 58.1 °F 54.2 °F 29.85 in WSW 11.0 mph 18.0 mph 87 % 0.00 in 0 W/m2
03:13 58.1 °F 54.2 °F 29.85 in WSW 11.0 mph 19.0 mph 87 % 0.00 in 0 W/m2
03:18 58.3 °F 54.4 °F 29.84 in WSW 11.0 mph 19.0 mph 87 % 0.00 in 0 W/m2
03:23 58.3 °F 54.4 °F 29.84 in WSW 11.0 mph 20.0 mph 87 % 0.00 in 0 W/m2
03:28 58.3 °F 54.4 °F 29.84 in WSW 12.0 mph 25.0 mph 87 % 0.00 in 0 W/m2
03:33 58.3 °F 54.4 °F 29.84 in WSW 13.0 mph 25.0 mph 87 % 0.00 in 0 W/m2
03:38 58.3 °F 54.4 °F 29.84 in WSW 12.0 mph 22.0 mph 87 % 0.00 in 0 W/m2
03:43 58.3 °F 54.4 °F 29.84 in WSW 12.0 mph 21.0 mph 87 % 0.00 in 0 W/m2
03:48 58.3 °F 54.4 °F 29.84 in WSW 12.0 mph 24.0 mph 87 % 0.00 in 0 W/m2
03:53 58.1 °F 54.2 °F 29.84 in WSW 12.0 mph 24.0 mph 87 % 0.00 in 0 W/m2
03:58 58.1 °F 54.2 °F 29.83 in WSW 12.0 mph 23.0 mph 87 % 0.00 in 0 W/m2
04:04 58.1 °F 54.2 °F 29.83 in WSW 12.0 mph 23.0 mph 87 % 0.00 in 0 W/m2
04:09 58.1 °F 54.6 °F 29.83 in WSW 12.0 mph 21.0 mph 88 % 0.00 in 0 W/m2
04:14 57.9 °F 54.4 °F 29.83 in WSW 12.0 mph 21.0 mph 88 % 0.00 in 0 W/m2
04:19 57.9 °F 54.4 °F 29.83 in WSW 11.0 mph 20.0 mph 88 % 0.00 in 0 W/m2
04:21 57.9 °F 54.4 °F 29.83 in WSW 11.0 mph 20.0 mph 88 % 0.00 in 0 W/m2
04:23 57.9 °F 54.4 °F 29.83 in WSW 10.0 mph 20.0 mph 88 % 0.00 in 0 W/m2
04:28 57.7 °F 54.2 °F 29.83 in WSW 10.0 mph 19.0 mph 88 % 0.00 in 0 W/m2
04:33 57.7 °F 54.5 °F 29.83 in WSW 9.0 mph 19.0 mph 89 % 0.00 in 0 W/m2
04:38 57.6 °F 54.3 °F 29.83 in WSW 10.0 mph 16.0 mph 89 % 0.00 in 0 W/m2
04:43 57.4 °F 54.5 °F 29.83 in WSW 11.0 mph 18.0 mph 90 % 0.00 in 0 W/m2
04:48 57.2 °F 54.3 °F 29.83 in WSW 11.0 mph 18.0 mph 90 % 0.00 in 0 W/m2
04:53 57.0 °F 54.1 °F 29.83 in WSW 10.0 mph 18.0 mph 90 % 0.00 in 0 W/m2
04:58 57.0 °F 54.1 °F 29.83 in WSW 9.0 mph 18.0 mph 90 % 0.00 in 0 W/m2
05:03 57.0 °F 54.4 °F 29.83 in WSW 9.0 mph 18.0 mph 91 % 0.00 in 0 W/m2
05:09 57.0 °F 54.4 °F 29.83 in WSW 10.0 mph 16.0 mph 91 % 0.00 in 0 W/m2
05:14 56.8 °F 54.2 °F 29.83 in WSW 9.0 mph 16.0 mph 91 % 0.00 in 0 W/m2
05:19 56.8 °F 54.2 °F 29.83 in WSW 10.0 mph 16.0 mph 91 % 0.00 in 0 W/m2
05:29 57.0 °F 54.4 °F 29.83 in WSW 10.0 mph 15.0 mph 91 % 0.00 in 0 W/m2
05:34 57.2 °F 54.3 °F 29.82 in WSW 10.0 mph 20.0 mph 90 % 0.00 in 0 W/m2
05:39 57.4 °F 54.5 °F 29.82 in WSW 10.0 mph 20.0 mph 90 % 0.00 in 0 W/m2
05:44 57.4 °F 54.5 °F 29.82 in WSW 10.0 mph 18.0 mph 90 % 0.00 in 0 W/m2
05:49 57.4 °F 54.2 °F 29.82 in WSW 10.0 mph 18.0 mph 89 % 0.00 in 0 W/m2
05:54 57.4 °F 54.2 °F 29.82 in WSW 10.0 mph 20.0 mph 89 % 0.00 in 0 W/m2
05:59 57.6 °F 54.3 °F 29.82 in WSW 10.0 mph 20.0 mph 89 % 0.00 in 0 W/m2
06:04 57.4 °F 54.2 °F 29.82 in WSW 8.0 mph 15.0 mph 89 % 0.00 in 0 W/m2
06:09 57.4 °F 54.2 °F 29.82 in WSW 9.0 mph 16.0 mph 89 % 0.00 in 0 W/m2
06:14 57.4 °F 54.2 °F 29.82 in WSW 10.0 mph 20.0 mph 89 % 0.00 in 0 W/m2
06:19 57.2 °F 54.0 °F 29.82 in WSW 10.0 mph 20.0 mph 89 % 0.00 in 0 W/m2
06:24 57.0 °F 53.8 °F 29.82 in WSW 9.0 mph 18.0 mph 89 % 0.00 in 0 W/m2
06:29 57.0 °F 53.8 °F 29.82 in WSW 10.0 mph 18.0 mph 89 % 0.00 in 0 W/m2
06:34 57.0 °F 54.1 °F 29.82 in WSW 11.0 mph 18.0 mph 90 % 0.00 in 0 W/m2
06:39 57.0 °F 54.1 °F 29.82 in WSW 10.0 mph 18.0 mph 90 % 0.00 in 0 W/m2
06:44 57.0 °F 54.1 °F 29.83 in WSW 9.0 mph 14.0 mph 90 % 0.00 in 0 W/m2
06:49 56.8 °F 53.9 °F 29.82 in WSW 10.0 mph 15.0 mph 90 % 0.00 in 0 W/m2
06:54 57.0 °F 54.1 °F 29.82 in WSW 10.0 mph 16.0 mph 90 % 0.00 in 0 W/m2
06:59 57.2 °F 54.0 °F 29.82 in WSW 11.0 mph 20.0 mph 89 % 0.00 in 0 W/m2
07:04 57.2 °F 53.7 °F 29.82 in WSW 11.0 mph 20.0 mph 88 % 0.00 in 0 W/m2
07:09 57.4 °F 53.9 °F 29.82 in West 10.0 mph 18.0 mph 88 % 0.00 in 0 W/m2
07:14 57.4 °F 53.9 °F 29.82 in West 10.0 mph 15.0 mph 88 % 0.00 in 0 W/m2
07:19 57.4 °F 53.9 °F 29.82 in West 10.0 mph 16.0 mph 88 % 0.00 in 0 W/m2
07:24 57.6 °F 53.7 °F 29.82 in West 10.0 mph 19.0 mph 87 % 0.00 in 0 W/m2
07:29 57.6 °F 53.7 °F 29.82 in West 9.0 mph 19.0 mph 87 % 0.00 in 0 W/m2
07:34 57.6 °F 53.7 °F 29.83 in West 9.0 mph 15.0 mph 87 % 0.00 in 0 W/m2
07:39 57.6 °F 53.7 °F 29.83 in WSW 9.0 mph 15.0 mph 87 % 0.00 in 0 W/m2
07:44 57.6 °F 54.0 °F 29.83 in WSW 8.0 mph 14.0 mph 88 % 0.00 in 5 W/m2
07:49 57.6 °F 54.0 °F 29.83 in WSW 6.0 mph 11.0 mph 88 % 0.00 in 7 W/m2
07:54 57.4 °F 54.2 °F 29.83 in West 6.0 mph 11.0 mph 89 % 0.00 in 7 W/m2
07:59 57.2 °F 54.0 °F 29.83 in West 5.0 mph 11.0 mph 89 % 0.02 in 7 W/m2
08:04 57.0 °F 54.1 °F 29.83 in West 5.0 mph 8.0 mph 90 % 0.02 in 9 W/m2
08:09 56.8 °F 54.2 °F 29.83 in West 5.0 mph 8.0 mph 91 % 0.02 in 21 W/m2
08:19 56.7 °F 54.4 °F 29.83 in WSW 2.0 mph 5.0 mph 92 % 0.02 in 28 W/m2
08:24 56.5 °F 54.2 °F 29.83 in WSW 2.0 mph 6.0 mph 92 % 0.02 in 42 W/m2
08:30 56.5 °F 54.5 °F 29.83 in SW 4.0 mph 9.0 mph 93 % 0.02 in 37 W/m2
08:35 56.5 °F 54.5 °F 29.83 in SW 4.0 mph 9.0 mph 93 % 0.02 in 39 W/m2
08:40 56.5 °F 54.5 °F 29.83 in SW 3.0 mph 6.0 mph 93 % 0.02 in 28 W/m2
08:45 56.5 °F 54.5 °F 29.83 in SW 2.0 mph 6.0 mph 93 % 0.02 in 37 W/m2
08:50 56.5 °F 54.5 °F 29.83 in SW 4.0 mph 8.0 mph 93 % 0.02 in 42 W/m2
08:55 56.7 °F 54.7 °F 29.83 in WSW 5.0 mph 8.0 mph 93 % 0.02 in 53 W/m2
09:00 56.7 °F 54.7 °F 29.84 in WSW 5.0 mph 10.0 mph 93 % 0.01 in 60 W/m2
09:05 56.7 °F 54.7 °F 29.83 in WSW 6.0 mph 11.0 mph 93 % 0.01 in 62 W/m2
09:10 56.8 °F 54.8 °F 29.83 in WSW 6.0 mph 11.0 mph 93 % 0.00 in 98 W/m2
09:15 56.8 °F 54.8 °F 29.84 in WSW 6.0 mph 10.0 mph 93 % 0.00 in 113 W/m2
09:20 57.0 °F 54.7 °F 29.84 in WSW 6.0 mph 11.0 mph 92 % 0.00 in 111 W/m2
09:25 57.2 °F 54.9 °F 29.84 in West 7.0 mph 13.0 mph 92 % 0.00 in 134 W/m2
09:30 57.4 °F 55.1 °F 29.84 in West 7.0 mph 13.0 mph 92 % 0.00 in 128 W/m2
09:35 57.4 °F 55.1 °F 29.84 in WSW 8.0 mph 16.0 mph 92 % 0.00 in 134 W/m2
09:40 57.6 °F 55.3 °F 29.84 in WSW 9.0 mph 16.0 mph 92 % 0.00 in 148 W/m2
09:45 57.6 °F 55.0 °F 29.84 in WSW 8.0 mph 15.0 mph 91 % 0.00 in 178 W/m2
09:50 57.7 °F 55.1 °F 29.84 in West 8.0 mph 13.0 mph 91 % 0.00 in 162 W/m2
09:55 57.9 °F 55.3 °F 29.84 in WSW 7.0 mph 13.0 mph 91 % 0.00 in 169 W/m2
10:00 58.1 °F 55.2 °F 29.84 in WSW 8.0 mph 14.0 mph 90 % 0.00 in 185 W/m2
10:05 58.3 °F 55.4 °F 29.84 in WSW 9.0 mph 15.0 mph 90 % 0.00 in 193 W/m2
10:10 58.3 °F 55.1 °F 29.84 in WSW 10.0 mph 15.0 mph 89 % 0.00 in 172 W/m2
10:15 58.5 °F 55.2 °F 29.84 in WSW 9.0 mph 15.0 mph 89 % 0.00 in 204 W/m2
10:20 58.5 °F 55.2 °F 29.84 in WSW 9.0 mph 18.0 mph 89 % 0.00 in 239 W/m2
10:25 58.5 °F 55.2 °F 29.85 in WSW 9.0 mph 18.0 mph 89 % 0.00 in 111 W/m2
10:30 58.6 °F 55.4 °F 29.85 in WSW 9.0 mph 15.0 mph 89 % 0.00 in 111 W/m2
10:35 58.5 °F 55.2 °F 29.85 in West 8.0 mph 15.0 mph 89 % 0.00 in 97 W/m2
10:40 58.5 °F 55.2 °F 29.85 in West 8.0 mph 13.0 mph 89 % 0.00 in 53 W/m2
10:45 58.3 °F 55.4 °F 29.85 in West 8.0 mph 14.0 mph 90 % 0.00 in 134 W/m2
10:50 58.3 °F 55.4 °F 29.86 in West 9.0 mph 14.0 mph 90 % 0.00 in 156 W/m2
10:55 58.1 °F 55.2 °F 29.85 in West 8.0 mph 13.0 mph 90 % 0.00 in 167 W/m2
11:00 58.1 °F 55.2 °F 29.85 in West 9.0 mph 19.0 mph 90 % 0.00 in 200 W/m2
11:05 58.3 °F 55.1 °F 29.85 in West 10.0 mph 19.0 mph 89 % 0.00 in 243 W/m2
11:10 58.5 °F 54.6 °F 29.85 in West 11.0 mph 22.0 mph 87 % 0.00 in 269 W/m2
11:15 58.6 °F 54.8 °F 29.85 in West 11.0 mph 22.0 mph 87 % 0.00 in 209 W/m2
11:20 58.8 °F 54.6 °F 29.85 in West 10.0 mph 16.0 mph 86 % 0.00 in 244 W/m2
11:25 59.0 °F 54.5 °F 29.85 in West 9.0 mph 16.0 mph 85 % 0.00 in 306 W/m2
11:30 59.2 °F 54.3 °F 29.85 in West 10.0 mph 18.0 mph 84 % 0.00 in 232 W/m2
11:35 59.0 °F 53.8 °F 29.85 in WSW 11.0 mph 18.0 mph 83 % 0.00 in 262 W/m2
11:40 58.8 °F 54.0 °F 29.86 in West 10.0 mph 18.0 mph 84 % 0.00 in 186 W/m2
11:46 58.8 °F 54.3 °F 29.85 in West 9.0 mph 14.0 mph 85 % 0.00 in 225 W/m2
11:51 59.0 °F 54.5 °F 29.85 in West 10.0 mph 16.0 mph 85 % 0.00 in 352 W/m2
11:56 59.4 °F 54.8 °F 29.84 in WSW 10.0 mph 16.0 mph 85 % 0.00 in 422 W/m2
12:01 59.7 °F 54.9 °F 29.84 in West 9.0 mph 16.0 mph 84 % 0.00 in 308 W/m2
12:06 60.1 °F 54.9 °F 29.85 in West 10.0 mph 16.0 mph 83 % 0.00 in 322 W/m2
12:11 60.1 °F 54.6 °F 29.84 in West 10.0 mph 16.0 mph 82 % 0.00 in 374 W/m2
12:16 60.3 °F 55.1 °F 29.84 in West 9.0 mph 15.0 mph 83 % 0.00 in 318 W/m2
12:21 60.4 °F 54.9 °F 29.85 in West 8.0 mph 16.0 mph 82 % 0.00 in 274 W/m2
12:26 60.4 °F 54.2 °F 29.85 in West 10.0 mph 19.0 mph 80 % 0.00 in 274 W/m2
12:31 60.3 °F 54.1 °F 29.85 in West 12.0 mph 21.0 mph 80 % 0.00 in 257 W/m2
12:36 60.4 °F 54.6 °F 29.85 in West 12.0 mph 21.0 mph 81 % 0.00 in 253 W/m2
12:41 60.4 °F 54.6 °F 29.85 in West 10.0 mph 18.0 mph 81 % 0.00 in 248 W/m2
12:46 60.4 °F 54.6 °F 29.85 in WNW 10.0 mph 16.0 mph 81 % 0.00 in 221 W/m2
12:51 60.4 °F 54.6 °F 29.85 in WNW 9.0 mph 16.0 mph 81 % 0.00 in 248 W/m2
12:56 60.6 °F 54.8 °F 29.85 in West 8.0 mph 14.0 mph 81 % 0.00 in 311 W/m2
13:01 60.8 °F 54.9 °F 29.85 in West 9.0 mph 14.0 mph 81 % 0.00 in 376 W/m2
13:06 61.2 °F 55.3 °F 29.84 in WNW 9.0 mph 15.0 mph 81 % 0.00 in 366 W/m2
13:11 61.7 °F 55.5 °F 29.84 in WNW 9.0 mph 15.0 mph 80 % 0.00 in 264 W/m2
13:16 61.7 °F 54.8 °F 29.84 in West 9.0 mph 16.0 mph 78 % 0.00 in 334 W/m2
13:21 61.9 °F 55.3 °F 29.83 in West 8.0 mph 16.0 mph 79 % 0.00 in 257 W/m2
13:26 61.9 °F 55.3 °F 29.83 in West 7.0 mph 13.0 mph 79 % 0.00 in 253 W/m2
13:31 61.7 °F 54.8 °F 29.83 in West 8.0 mph 14.0 mph 78 % 0.00 in 246 W/m2
13:36 61.9 °F 54.9 °F 29.83 in WSW 8.0 mph 16.0 mph 78 % 0.00 in 243 W/m2
13:46 61.9 °F 54.6 °F 29.82 in WSW 8.0 mph 16.0 mph 77 % 0.00 in 248 W/m2
13:51 61.9 °F 54.2 °F 29.82 in WSW 8.0 mph 13.0 mph 76 % 0.00 in 241 W/m2
13:56 61.9 °F 53.9 °F 29.82 in WSW 8.0 mph 13.0 mph 75 % 0.00 in 223 W/m2
14:01 61.9 °F 53.5 °F 29.82 in WSW 9.0 mph 18.0 mph 74 % 0.00 in 204 W/m2
14:06 61.9 °F 53.5 °F 29.82 in WSW 11.0 mph 19.0 mph 74 % 0.00 in 192 W/m2
14:11 61.9 °F 53.5 °F 29.82 in WSW 11.0 mph 19.0 mph 74 % 0.00 in 188 W/m2
14:21 62.1 °F 53.7 °F 29.81 in WSW 9.0 mph 14.0 mph 74 % 0.00 in 267 W/m2
14:26 62.2 °F 53.8 °F 29.81 in WSW 9.0 mph 14.0 mph 74 % 0.00 in 267 W/m2
14:31 62.4 °F 54.0 °F 29.81 in WSW 8.0 mph 15.0 mph 74 % 0.00 in 253 W/m2
14:36 62.8 °F 54.4 °F 29.81 in WSW 8.0 mph 15.0 mph 74 % 0.00 in 246 W/m2
14:41 62.8 °F 54.0 °F 29.81 in WSW 8.0 mph 15.0 mph 73 % 0.00 in 216 W/m2
14:46 62.8 °F 54.4 °F 29.81 in SW 8.0 mph 13.0 mph 74 % 0.00 in 237 W/m2
14:51 62.8 °F 54.0 °F 29.81 in SW 8.0 mph 14.0 mph 73 % 0.00 in 220 W/m2
14:56 62.8 °F 54.0 °F 29.81 in SW 9.0 mph 16.0 mph 73 % 0.00 in 237 W/m2
15:01 62.8 °F 54.0 °F 29.80 in WSW 10.0 mph 16.0 mph 73 % 0.00 in 220 W/m2
15:06 62.8 °F 53.6 °F 29.80 in WSW 11.0 mph 19.0 mph 72 % 0.00 in 216 W/m2
15:11 62.8 °F 54.0 °F 29.80 in WSW 11.0 mph 19.0 mph 73 % 0.00 in 204 W/m2
15:16 62.8 °F 54.4 °F 29.81 in WSW 9.0 mph 15.0 mph 74 % 0.00 in 165 W/m2
15:21 62.8 °F 54.4 °F 29.80 in WSW 9.0 mph 15.0 mph 74 % 0.00 in 179 W/m2
15:27 62.8 °F 54.7 °F 29.80 in WSW 8.0 mph 13.0 mph 75 % 0.00 in 195 W/m2
15:32 62.6 °F 54.6 °F 29.80 in WSW 9.0 mph 14.0 mph 75 % 0.00 in 200 W/m2
15:37 62.6 °F 54.6 °F 29.80 in WSW 9.0 mph 14.0 mph 75 % 0.00 in 188 W/m2
15:42 62.4 °F 54.4 °F 29.80 in SW 9.0 mph 14.0 mph 75 % 0.00 in 178 W/m2
15:47 62.6 °F 54.6 °F 29.80 in SW 8.0 mph 14.0 mph 75 % 0.00 in 151 W/m2
15:52 62.6 °F 54.6 °F 29.80 in WSW 7.0 mph 12.0 mph 75 % 0.00 in 135 W/m2
15:57 62.6 °F 53.8 °F 29.79 in WSW 8.0 mph 16.0 mph 73 % 0.00 in 105 W/m2
16:02 62.4 °F 52.5 °F 29.79 in SW 10.0 mph 19.0 mph 70 % 0.00 in 113 W/m2
16:07 62.4 °F 51.7 °F 29.79 in WSW 11.0 mph 22.0 mph 68 % 0.00 in 95 W/m2
16:12 62.4 °F 51.3 °F 29.79 in WSW 13.0 mph 24.0 mph 67 % 0.00 in 86 W/m2
16:17 62.2 °F 51.1 °F 29.79 in WSW 12.0 mph 24.0 mph 67 % 0.00 in 72 W/m2
16:22 62.2 °F 51.5 °F 29.79 in WSW 11.0 mph 21.0 mph 68 % 0.00 in 60 W/m2
16:27 62.1 °F 51.8 °F 29.79 in WSW 10.0 mph 20.0 mph 69 % 0.00 in 54 W/m2
16:32 61.9 °F 52.0 °F 29.80 in WSW 10.0 mph 23.0 mph 70 % 0.00 in 47 W/m2
16:37 61.7 °F 51.8 °F 29.80 in WSW 11.0 mph 23.0 mph 70 % 0.00 in 44 W/m2
16:42 61.5 °F 51.6 °F 29.79 in SW 11.0 mph 18.0 mph 70 % 0.00 in 42 W/m2
16:47 61.3 °F 51.5 °F 29.79 in WSW 10.0 mph 20.0 mph 70 % 0.00 in 40 W/m2
16:52 61.2 °F 51.3 °F 29.79 in WSW 9.0 mph 20.0 mph 70 % 0.00 in 39 W/m2
16:57 61.2 °F 51.7 °F 29.79 in WSW 8.0 mph 14.0 mph 71 % 0.00 in 39 W/m2
17:02 61.0 °F 51.5 °F 29.79 in SW 9.0 mph 15.0 mph 71 % 0.00 in 39 W/m2
17:07 60.8 °F 51.3 °F 29.79 in SW 9.0 mph 15.0 mph 71 % 0.00 in 37 W/m2
17:12 60.6 °F 51.2 °F 29.80 in SW 8.0 mph 15.0 mph 71 % 0.00 in 30 W/m2
17:17 60.4 °F 51.4 °F 29.79 in SW 8.0 mph 15.0 mph 72 % 0.00 in 23 W/m2
17:22 60.3 °F 51.2 °F 29.79 in SW 9.0 mph 15.0 mph 72 % 0.00 in 21 W/m2
17:24 60.3 °F 51.2 °F 29.79 in WSW 9.0 mph 15.0 mph 72 % 0.00 in 19 W/m2
17:29 60.1 °F 51.0 °F 29.79 in WSW 8.0 mph 14.0 mph 72 % 0.00 in 16 W/m2
17:35 60.1 °F 51.4 °F 29.79 in WSW 7.0 mph 12.0 mph 73 % 0.00 in 18 W/m2
17:40 59.9 °F 51.2 °F 29.79 in WSW 7.0 mph 12.0 mph 73 % 0.00 in 19 W/m2
17:45 59.7 °F 51.0 °F 29.79 in SW 6.0 mph 16.0 mph 73 % 0.00 in 18 W/m2
17:50 59.7 °F 51.0 °F 29.79 in WSW 7.0 mph 16.0 mph 73 % 0.00 in 14 W/m2
17:55 59.5 °F 50.9 °F 29.79 in West 7.0 mph 18.0 mph 73 % 0.00 in 12 W/m2
18:00 59.5 °F 50.9 °F 29.79 in WSW 8.0 mph 18.0 mph 73 % 0.00 in 12 W/m2
18:05 59.4 °F 50.3 °F 29.79 in WSW 8.0 mph 14.0 mph 72 % 0.00 in 9 W/m2
18:10 59.2 °F 49.8 °F 29.80 in WSW 10.0 mph 19.0 mph 71 % 0.00 in 7 W/m2
18:15 59.2 °F 49.8 °F 29.80 in WSW 11.0 mph 19.0 mph 71 % 0.00 in 0 W/m2
18:20 59.0 °F 50.0 °F 29.80 in WSW 10.0 mph 19.0 mph 72 % 0.00 in 0 W/m2
18:25 58.8 °F 49.8 °F 29.80 in WSW 10.0 mph 19.0 mph 72 % 0.00 in 0 W/m2
18:30 58.6 °F 50.0 °F 29.80 in SW 8.0 mph 14.0 mph 73 % 0.00 in 0 W/m2
18:35 58.5 °F 50.2 °F 29.79 in SW 9.0 mph 22.0 mph 74 % 0.00 in 0 W/m2
18:40 58.3 °F 50.0 °F 29.79 in SW 10.0 mph 22.0 mph 74 % 0.00 in 0 W/m2
18:45 58.1 °F 49.9 °F 29.79 in WSW 10.0 mph 20.0 mph 74 % 0.00 in 0 W/m2
18:50 57.9 °F 49.7 °F 29.79 in WSW 9.0 mph 20.0 mph 74 % 0.00 in 0 W/m2
18:55 57.9 °F 49.7 °F 29.79 in SW 7.0 mph 16.0 mph 74 % 0.00 in 0 W/m2
19:00 57.7 °F 49.5 °F 29.79 in SW 7.0 mph 14.0 mph 74 % 0.00 in 0 W/m2
19:05 57.7 °F 49.5 °F 29.79 in SW 8.0 mph 14.0 mph 74 % 0.00 in 0 W/m2
19:10 57.6 °F 49.7 °F 29.79 in SW 6.0 mph 12.0 mph 75 % 0.00 in 0 W/m2
19:15 57.4 °F 49.5 °F 29.79 in SSW 6.0 mph 11.0 mph 75 % 0.00 in 0 W/m2
19:20 57.2 °F 49.3 °F 29.79 in SSW 6.0 mph 13.0 mph 75 % 0.00 in 0 W/m2
19:25 57.2 °F 49.7 °F 29.79 in SW 6.0 mph 13.0 mph 76 % 0.00 in 0 W/m2
19:30 57.0 °F 49.5 °F 29.79 in SW 6.0 mph 12.0 mph 76 % 0.00 in 0 W/m2
19:35 57.0 °F 49.5 °F 29.79 in SW 6.0 mph 12.0 mph 76 % 0.00 in 0 W/m2
19:40 57.0 °F 49.5 °F 29.78 in SW 7.0 mph 15.0 mph 76 % 0.00 in 0 W/m2
19:45 57.0 °F 49.5 °F 29.78 in SW 7.0 mph 16.0 mph 76 % 0.00 in 0 W/m2
19:50 57.0 °F 49.5 °F 29.78 in SW 7.0 mph 16.0 mph 76 % 0.00 in 0 W/m2
19:55 56.8 °F 49.4 °F 29.78 in SW 7.0 mph 13.0 mph 76 % 0.00 in 0 W/m2
20:00 56.8 °F 49.4 °F 29.78 in SW 6.0 mph 10.0 mph 76 % 0.00 in 0 W/m2
20:05 56.8 °F 49.0 °F 29.78 in SW 5.0 mph 10.0 mph 75 % 0.00 in 0 W/m2
20:10 56.7 °F 49.2 °F 29.78 in SSW 7.0 mph 12.0 mph 76 % 0.00 in 0 W/m2
20:15 56.7 °F 48.8 °F 29.78 in SSW 8.0 mph 12.0 mph 75 % 0.00 in 0 W/m2
20:20 56.7 °F 49.2 °F 29.78 in SSW 7.0 mph 13.0 mph 76 % 0.00 in 0 W/m2
20:25 56.7 °F 49.2 °F 29.78 in SSW 7.0 mph 13.0 mph 76 % 0.00 in 0 W/m2
20:30 56.7 °F 49.2 °F 29.79 in SSW 6.0 mph 11.0 mph 76 % 0.00 in 0 W/m2
20:35 56.5 °F 49.0 °F 29.79 in SW 5.0 mph 9.0 mph 76 % 0.00 in 0 W/m2
20:40 56.5 °F 49.4 °F 29.78 in SSW 6.0 mph 12.0 mph 77 % 0.00 in 0 W/m2
20:45 56.5 °F 49.4 °F 29.78 in SSW 6.0 mph 12.0 mph 77 % 0.00 in 0 W/m2
20:46 56.5 °F 49.4 °F 29.78 in SSW 5.0 mph 11.0 mph 77 % 0.00 in 0 W/m2
20:51 56.5 °F 49.4 °F 29.78 in SSW 5.0 mph 10.0 mph 77 % 0.00 in 0 W/m2
20:56 56.5 °F 49.4 °F 29.78 in South 6.0 mph 10.0 mph 77 % 0.00 in 0 W/m2
21:01 56.3 °F 49.2 °F 29.78 in SSW 5.0 mph 8.0 mph 77 % 0.00 in 0 W/m2
21:06 56.3 °F 49.2 °F 29.78 in South 5.0 mph 13.0 mph 77 % 0.00 in 0 W/m2
21:11 56.5 °F 49.4 °F 29.78 in South 5.0 mph 13.0 mph 77 % 0.00 in 0 W/m2
21:16 56.5 °F 49.4 °F 29.78 in South 6.0 mph 11.0 mph 77 % 0.00 in 0 W/m2
21:21 56.5 °F 49.4 °F 29.78 in South 7.0 mph 12.0 mph 77 % 0.00 in 0 W/m2
21:26 56.5 °F 49.4 °F 29.77 in SSW 7.0 mph 12.0 mph 77 % 0.00 in 0 W/m2
21:31 56.5 °F 49.4 °F 29.77 in SSW 7.0 mph 13.0 mph 77 % 0.00 in 0 W/m2
21:36 56.5 °F 49.4 °F 29.78 in SSW 7.0 mph 13.0 mph 77 % 0.00 in 0 W/m2
21:41 56.3 °F 49.5 °F 29.78 in SW 7.0 mph 12.0 mph 78 % 0.00 in 0 W/m2
21:46 56.3 °F 49.5 °F 29.78 in SW 8.0 mph 12.0 mph 78 % 0.00 in 0 W/m2
21:51 56.5 °F 49.7 °F 29.78 in SW 8.0 mph 13.0 mph 78 % 0.00 in 0 W/m2
21:56 56.5 °F 49.4 °F 29.77 in SW 9.0 mph 15.0 mph 77 % 0.00 in 0 W/m2
22:01 56.5 °F 49.4 °F 29.77 in SW 8.0 mph 15.0 mph 77 % 0.00 in 0 W/m2
22:06 56.5 °F 49.7 °F 29.77 in SW 8.0 mph 13.0 mph 78 % 0.00 in 0 W/m2
22:11 56.5 °F 49.7 °F 29.77 in SW 8.0 mph 14.0 mph 78 % 0.00 in 0 W/m2
22:16 56.3 °F 49.5 °F 29.77 in SW 8.0 mph 16.0 mph 78 % 0.00 in 0 W/m2
22:21 56.5 °F 49.4 °F 29.77 in SW 10.0 mph 22.0 mph 77 % 0.00 in 0 W/m2
22:26 56.7 °F 49.2 °F 29.77 in SW 11.0 mph 22.0 mph 76 % 0.00 in 0 W/m2
22:31 56.8 °F 49.4 °F 29.77 in SW 10.0 mph 18.0 mph 76 % 0.00 in 0 W/m2
22:36 56.8 °F 49.4 °F 29.76 in WSW 11.0 mph 21.0 mph 76 % 0.00 in 0 W/m2
22:41 56.8 °F 49.4 °F 29.76 in SW 11.0 mph 21.0 mph 76 % 0.00 in 0 W/m2
22:46 56.8 °F 49.4 °F 29.76 in SW 9.0 mph 19.0 mph 76 % 0.00 in 0 W/m2
22:51 56.8 °F 49.4 °F 29.76 in WSW 9.0 mph 15.0 mph 76 % 0.00 in 0 W/m2
22:56 56.7 °F 49.2 °F 29.76 in WSW 9.0 mph 16.0 mph 76 % 0.00 in 0 W/m2
23:01 56.7 °F 49.5 °F 29.75 in WSW 10.0 mph 19.0 mph 77 % 0.00 in 0 W/m2
23:06 56.8 °F 49.4 °F 29.75 in SW 12.0 mph 26.0 mph 76 % 0.00 in 0 W/m2
23:11 56.8 °F 49.7 °F 29.75 in SW 11.0 mph 26.0 mph 77 % 0.00 in 0 W/m2
23:16 56.8 °F 49.7 °F 29.75 in SW 9.0 mph 19.0 mph 77 % 0.00 in 0 W/m2
23:26 56.7 °F 49.9 °F 29.75 in SW 9.0 mph 15.0 mph 78 % 0.00 in 0 W/m2
23:31 56.7 °F 49.9 °F 29.75 in SW 9.0 mph 15.0 mph 78 % 0.00 in 0 W/m2
23:36 56.7 °F 50.2 °F 29.75 in SW 9.0 mph 16.0 mph 79 % 0.00 in 0 W/m2
23:41 56.7 °F 50.2 °F 29.75 in SW 9.0 mph 16.0 mph 79 % 0.00 in 0 W/m2
23:46 56.7 °F 50.2 °F 29.75 in WSW 9.0 mph 16.0 mph 79 % 0.00 in 0 W/m2
23:51 56.8 °F 50.1 °F 29.75 in WSW 10.0 mph 19.0 mph 78 % 0.00 in 0 W/m2
23:56 56.8 °F 50.1 °F 29.75 in WSW 11.0 mph 20.0 mph 78 % 0.00 in 0 W/m2
Delerius-Weather
Compliments of Weather Underground - 2.25 mb

Data updates at regular intervals.